Time;durP1;ratioP1;P1;durP2;ratioP2;P2;SDS_P1;SDS_P2;PMS_P1;PMS_P2;Temp;Humidity;BMP_temperature;BMP_pressure;BME280_temperature;BME280_humidity;BME280_pressure;Samples;Min_cycle;Max_cycle;Signal;HPM_P1;HPM_P2
2024/01/03 00:02:19;;;;;;;9.90;5.10;;;;;;;-1.45;75.99;98551.30;78403;1294;3052611;-72
2024/01/03 00:04:45;;;;;;;8.80;4.70;;;;;;;-1.37;76.11;98556.41;79652;1297;3013520;-69
2024/01/03 00:07:12;;;;;;;9.40;5.20;;;;;;;-1.29;75.73;98550.54;79678;1297;3013896;-66
2024/01/03 00:09:40;;;;;;;7.10;4.60;;;;;;;-1.34;75.64;98556.70;78368;1294;3025514;-69
2024/01/03 00:12:07;;;;;;;8.10;4.50;;;;;;;-1.40;75.59;98559.07;79600;1296;3018768;-70
2024/01/03 00:14:34;;;;;;;8.30;4.40;;;;;;;-1.35;75.48;98556.88;79692;1294;3011652;-71
2024/01/03 00:17:03;;;;;;;9.50;5.10;;;;;;;-1.28;75.17;98561.16;78417;1295;3053300;-69
2024/01/03 00:19:30;;;;;;;10.10;5.00;;;;;;;-1.33;75.33;98564.38;79698;1295;3013055;-69
2024/01/03 00:21:57;;;;;;;8.00;4.80;;;;;;;-1.39;75.33;98573.14;79607;1297;3011657;-69
2024/01/03 00:24:25;;;;;;;8.90;4.50;;;;;;;-1.49;75.40;98573.21;78430;1297;3068767;-69
2024/01/03 00:26:51;;;;;;;9.50;5.20;;;;;;;-1.57;75.78;98575.16;79639;1295;3013591;-67
2024/01/03 00:29:48;;;;;;;10.80;6.10;;;;;;;-1.66;75.98;98575.71;79673;1295;3011703;-76
2024/01/03 00:32:16;;;;;;;10.10;5.10;;;;;;;-1.59;75.77;98571.95;78189;1294;3053780;-72
2024/01/03 00:34:44;;;;;;;10.50;5.50;;;;;;;-1.59;76.06;98576.39;79722;1297;3013833;-66
2024/01/03 00:37:25;;;;;;;12.70;6.20;;;;;;;-1.73;75.95;98581.89;79569;1301;3011755;-70
2024/01/03 00:39:55;;;;;;;8.50;4.70;;;;;;;-1.78;76.29;98581.34;78330;1297;3068286;-71
2024/01/03 00:42:21;;;;;;;12.90;5.60;;;;;;;-1.79;76.01;98585.83;79598;1294;3014482;-69
2024/01/03 00:44:48;;;;;;;10.70;5.90;;;;;;;-1.80;75.68;98591.16;79951;1295;3011556;-66
2024/01/03 00:47:18;;;;;;;9.70;5.40;;;;;;;-1.86;75.73;98584.09;78431;1294;3052881;-76
2024/01/03 00:49:45;;;;;;;9.30;5.10;;;;;;;-1.80;75.72;98588.42;79682;1295;3013004;-74
2024/01/03 00:52:11;;;;;;;7.10;4.20;;;;;;;-1.91;75.45;98590.58;79595;1297;3011541;-71
2024/01/03 00:54:39;;;;;;;8.50;4.80;;;;;;;-1.97;75.83;98594.69;78290;1294;3069181;-70
2024/01/03 00:57:06;;;;;;;7.10;4.00;;;;;;;-2.05;75.72;98593.14;79585;1294;3013713;-67
2024/01/03 00:59:34;;;;;;;9.40;5.10;;;;;;;-2.06;75.42;98594.71;79499;1294;3011747;-72
2024/01/03 01:02:03;;;;;;;7.00;4.10;;;;;;;-2.02;75.55;98586.20;78379;1294;3052432;-68
2024/01/03 01:04:31;;;;;;;8.50;4.80;;;;;;;-2.04;75.40;98585.56;79543;1300;3012701;-73
2024/01/03 01:06:58;;;;;;;10.20;5.20;;;;;;;-2.18;75.36;98598.58;79584;1300;3011710;-69
2024/01/03 01:09:26;;;;;;;14.30;7.20;;;;;;;-2.31;75.48;98597.85;78198;1298;3067731;-72
2024/01/03 01:11:53;;;;;;;20.60;7.70;;;;;;;-2.28;75.71;98598.29;79538;1294;3012650;-66
2024/01/03 01:14:19;;;;;;;18.90;9.40;;;;;;;-2.28;75.67;98602.23;79454;1300;3011588;-70
2024/01/03 01:16:47;;;;;;;17.30;7.20;;;;;;;-2.11;75.18;98599.80;78282;1294;3026037;-68
2024/01/03 01:19:14;;;;;;;11.20;5.80;;;;;;;-2.04;74.84;98601.18;79527;1298;3013732;-71
2024/01/03 01:21:41;;;;;;;11.90;6.00;;;;;;;-2.06;74.30;98600.36;79516;1300;3012758;-73
2024/01/03 01:24:09;;;;;;;19.00;7.50;;;;;;;-2.35;74.63;98612.67;78306;1298;3068250;-70
2024/01/03 01:26:36;;;;;;;14.40;6.50;;;;;;;-2.23;74.65;98603.52;79538;1295;3019099;-70
2024/01/03 01:29:03;;;;;;;12.40;6.70;;;;;;;-2.25;74.48;98612.63;79499;1297;3011290;-74
2024/01/03 01:31:32;;;;;;;10.30;5.00;;;;;;;-2.16;73.94;98615.36;78328;1294;3026271;-69
2024/01/03 01:33:59;;;;;;;7.20;3.90;;;;;;;-2.15;73.87;98614.13;79389;1300;3011617;-73
2024/01/03 01:36:25;;;;;;;4.90;3.60;;;;;;;-2.29;73.66;98622.49;79359;1300;3011860;-69
2024/01/03 01:38:53;;;;;;;5.90;3.50;;;;;;;-2.33;73.81;98615.72;78277;1299;3068385;-66
2024/01/03 01:41:20;;;;;;;6.40;3.30;;;;;;;-2.38;73.85;98614.11;79489;1294;3013579;-70
2024/01/03 01:43:46;;;;;;;4.70;3.30;;;;;;;-2.38;73.90;98608.13;79559;1294;3011928;-70
2024/01/03 01:46:15;;;;;;;7.30;4.10;;;;;;;-2.39;73.36;98614.15;78247;1299;3026521;-70
2024/01/03 01:48:41;;;;;;;6.60;3.60;;;;;;;-2.45;73.12;98622.49;79509;1299;3012865;-71
2024/01/03 01:51:10;;;;;;;7.00;3.50;;;;;;;-2.67;73.36;98619.69;79494;1298;3011857;-71
2024/01/03 01:53:38;;;;;;;6.80;4.10;;;;;;;-2.57;73.49;98622.43;78269;1294;3068631;-65
2024/01/03 01:56:05;;;;;;;5.00;2.90;;;;;;;-2.55;73.12;98625.98;79483;1294;3013102;-68
2024/01/03 01:58:32;;;;;;;9.40;3.60;;;;;;;-2.64;72.83;98632.33;79275;1294;3011946;-71
2024/01/03 02:01:00;;;;;;;4.10;2.60;;;;;;;-2.81;73.00;98635.40;78210;1294;3053271;-74
2024/01/03 02:03:28;;;;;;;4.20;2.90;;;;;;;-2.82;73.23;98646.06;79345;1300;3013465;-71
2024/01/03 02:05:55;;;;;;;4.80;3.20;;;;;;;-2.82;73.21;98644.00;79603;1294;3011436;-64
2024/01/03 02:08:23;;;;;;;4.90;3.50;;;;;;;-2.84;73.09;98647.47;78202;1299;3067147;-70
2024/01/03 02:10:51;;;;;;;4.50;3.10;;;;;;;-2.80;73.39;98640.36;79364;1294;3013136;-68
2024/01/03 02:13:17;;;;;;;4.90;3.20;;;;;;;-2.79;73.02;98648.74;79335;1299;3012990;-71
2024/01/03 02:15:45;;;;;;;5.30;3.40;;;;;;;-2.80;72.96;98640.19;78287;1298;3053634;-70
2024/01/03 02:18:12;;;;;;;3.50;2.90;;;;;;;-2.79;73.02;98644.80;79506;1298;3016040;-72
2024/01/03 02:20:39;;;;;;;5.80;3.30;;;;;;;-2.83;73.12;98654.13;79473;1300;3011868;-71
2024/01/03 02:23:07;;;;;;;5.00;3.60;;;;;;;-3.00;73.56;98645.02;78220;1294;3028701;-71
2024/01/03 02:25:34;;;;;;;4.40;3.00;;;;;;;-2.88;73.53;98646.52;79835;1295;3013279;-68
2024/01/03 02:28:00;;;;;;;4.80;3.10;;;;;;;-3.00;73.63;98650.67;79404;1296;3011720;-67
2024/01/03 02:30:29;;;;;;;5.40;3.40;;;;;;;-3.09;73.74;98649.64;78305;1294;3028035;-71
2024/01/03 02:32:55;;;;;;;5.30;3.30;;;;;;;-3.15;74.26;98647.54;79437;1299;3012892;-69
2024/01/03 02:35:22;;;;;;;4.30;3.30;;;;;;;-3.11;74.15;98634.27;79441;1299;3011667;-67
2024/01/03 02:37:50;;;;;;;4.90;3.40;;;;;;;-3.10;74.43;98635.11;78343;1296;3028303;-70
2024/01/03 02:40:17;;;;;;;4.00;2.80;;;;;;;-2.97;73.98;98640.00;79488;1294;3012944;-66
2024/01/03 02:42:43;;;;;;;9.50;4.00;;;;;;;-3.02;73.60;98642.15;79457;1294;3011628;-73
2024/01/03 02:45:11;;;;;;;6.70;3.80;;;;;;;-3.09;73.87;98651.88;78262;1295;3026607;-70
2024/01/03 02:47:38;;;;;;;6.90;4.00;;;;;;;-3.05;73.99;98639.46;79589;1298;3019056;-72
2024/01/03 02:50:05;;;;;;;5.20;3.00;;;;;;;-2.95;73.92;98640.83;79440;1298;3013427;-66
2024/01/03 02:52:34;;;;;;;3.90;2.70;;;;;;;-3.09;73.55;98654.29;78353;1294;3067782;-69
2024/01/03 02:55:01;;;;;;;4.90;3.30;;;;;;;-3.28;74.04;98655.64;79468;1294;3013509;-70
2024/01/03 02:57:28;;;;;;;8.80;3.80;;;;;;;-3.24;74.17;98655.56;79387;1294;3011792;-75
2024/01/03 02:59:56;;;;;;;9.10;4.80;;;;;;;-3.35;74.65;98658.52;78184;1297;3054115;-67
2024/01/03 03:02:23;;;;;;;9.80;4.70;;;;;;;-3.26;74.71;98659.38;79525;1301;3013164;-72
2024/01/03 03:04:50;;;;;;;9.10;4.90;;;;;;;-3.12;74.36;98666.33;79445;1300;3011315;-68
2024/01/03 03:07:18;;;;;;;10.10;4.60;;;;;;;-3.15;74.30;98667.41;78076;1298;3028500;-67
2024/01/03 03:09:45;;;;;;;9.60;4.90;;;;;;;-3.06;74.14;98670.33;79377;1294;3013346;-70
2024/01/03 03:12:11;;;;;;;10.70;6.30;;;;;;;-3.23;74.26;98667.70;79490;1298;3011550;-68
2024/01/03 03:14:39;;;;;;;10.90;6.20;;;;;;;-3.17;74.18;98674.63;78216;1299;3025959;-70
2024/01/03 03:17:06;;;;;;;11.30;5.60;;;;;;;-3.09;73.70;98676.37;79464;1298;3013131;-66
2024/01/03 03:19:32;;;;;;;11.70;6.20;;;;;;;-3.18;74.06;98684.92;79597;1300;3011654;-65
2024/01/03 03:22:00;;;;;;;10.00;5.80;;;;;;;-3.14;74.09;98691.54;78155;1294;3025615;-71
2024/01/03 03:24:27;;;;;;;14.30;6.60;;;;;;;-3.07;73.90;98690.56;79531;1294;3018956;-69
2024/01/03 03:26:55;;;;;;;12.70;6.90;;;;;;;-3.10;73.93;98695.25;79539;1294;3011414;-66
2024/01/03 03:29:22;;;;;;;11.60;5.80;;;;;;;-3.18;74.07;98683.73;78357;1294;3052791;-68
2024/01/03 03:31:49;;;;;;;10.20;5.90;;;;;;;-3.13;73.93;98684.83;79518;1294;3013256;-66
2024/01/03 03:34:17;;;;;;;12.20;6.30;;;;;;;-3.14;74.33;98684.34;79471;1294;3012790;-68
2024/01/03 03:36:45;;;;;;;13.50;5.50;;;;;;;-3.01;74.17;98686.52;78433;1294;3067986;-64
2024/01/03 03:39:12;;;;;;;12.00;6.40;;;;;;;-2.97;73.91;98687.82;79551;1294;3012868;-67
2024/01/03 03:41:38;;;;;;;12.20;6.50;;;;;;;-3.05;74.10;98691.89;79570;1293;3011374;-70
2024/01/03 03:44:06;;;;;;;12.70;6.60;;;;;;;-3.14;74.14;98694.45;78427;1297;3027336;-68
2024/01/03 03:46:33;;;;;;;15.60;7.70;;;;;;;-3.17;74.47;98692.96;79573;1297;3013468;-64
2024/01/03 03:48:59;;;;;;;14.10;6.80;;;;;;;-3.15;74.60;98688.98;79619;1300;3011678;-68
2024/01/03 03:51:27;;;;;;;16.10;7.70;;;;;;;-3.06;74.53;98685.74;78327;1297;3026575;-67
2024/01/03 03:53:54;;;;;;;13.70;7.20;;;;;;;-3.14;74.70;98689.13;79654;1294;3011747;-69
2024/01/03 03:56:24;;;;;;;10.70;6.30;;;;;;;-3.15;74.84;98685.90;79539;1294;3012172;-66
2024/01/03 03:58:52;;;;;;;10.00;5.80;;;;;;;-3.31;75.11;98689.27;78356;1299;3053261;-70
2024/01/03 04:01:19;;;;;;;9.20;5.70;;;;;;;-3.27;75.24;98687.48;79704;1297;3012886;-63
2024/01/03 04:03:46;;;;;;;9.10;5.10;;;;;;;-3.34;75.26;98690.34;79648;1294;3013781;-65
2024/01/03 04:06:15;;;;;;;8.10;5.30;;;;;;;-3.13;74.85;98691.52;78388;1294;3026831;-67
2024/01/03 04:08:45;;;;;;;9.60;5.90;;;;;;;-3.26;74.84;98695.35;79590;1294;3011825;-69
2024/01/03 04:11:13;;;;;;;8.30;5.50;;;;;;;-3.31;75.03;98696.27;78386;1294;3048756;-68
2024/01/03 04:13:40;;;;;;;12.20;6.50;;;;;;;-3.29;75.13;98694.02;79712;1294;3019320;-64
2024/01/03 04:16:09;;;;;;;11.70;7.10;;;;;;;-3.42;75.99;98695.10;79600;1297;3012934;-69
2024/01/03 04:18:37;;;;;;;9.90;5.80;;;;;;;-3.34;75.77;98696.85;78425;1297;3052770;-70
2024/01/03 04:21:06;;;;;;;12.80;6.80;;;;;;;-3.38;75.64;98701.88;79555;1294;3012802;-73
2024/01/03 04:23:35;;;;;;;13.10;7.10;;;;;;;-3.28;75.78;98702.91;79117;1294;3012819;-70
2024/01/03 04:26:02;;;;;;;15.00;7.80;;;;;;;-3.21;75.55;98704.86;79480;1296;3013618;-72
2024/01/03 04:28:29;;;;;;;16.40;7.60;;;;;;;-3.20;75.34;98714.77;79536;1294;3011731;-69
2024/01/03 04:30:57;;;;;;;12.40;7.00;;;;;;;-3.11;75.14;98718.73;78353;1295;3028883;-68
2024/01/03 04:33:24;;;;;;;14.10;7.20;;;;;;;-3.00;75.02;98723.36;79660;1294;3014174;-69
2024/01/03 04:35:50;;;;;;;15.20;7.50;;;;;;;-2.92;74.87;98726.27;79585;1294;3011415;-67
2024/01/03 04:38:18;;;;;;;11.00;6.30;;;;;;;-2.88;74.46;98729.30;78365;1294;3026268;-70
2024/01/03 04:40:45;;;;;;;14.50;7.70;;;;;;;-2.92;74.37;98729.70;79627;1294;3013117;-74
2024/01/03 04:43:12;;;;;;;13.40;7.80;;;;;;;-2.86;74.40;98735.09;79582;1296;3011471;-72
2024/01/03 04:45:39;;;;;;;13.30;7.90;;;;;;;-2.82;74.15;98735.69;78385;1296;3028418;-69
2024/01/03 04:48:06;;;;;;;15.00;7.70;;;;;;;-2.88;74.22;98729.98;79553;1297;3012826;-69
2024/01/03 04:50:33;;;;;;;10.30;6.70;;;;;;;-2.89;74.38;98732.23;79461;1298;3011813;-67
2024/01/03 04:53:01;;;;;;;14.70;7.60;;;;;;;-2.86;74.11;98742.98;78339;1294;3027964;-73
2024/01/03 04:55:29;;;;;;;16.20;7.70;;;;;;;-2.85;74.24;98745.70;79560;1296;3018722;-68
2024/01/03 04:57:57;;;;;;;11.60;7.30;;;;;;;-2.99;74.60;98745.42;79638;1295;3011576;-69
2024/01/03 05:00:25;;;;;;;14.60;7.90;;;;;;;-2.99;74.69;98745.94;78315;1296;3049930;-67
2024/01/03 05:02:53;;;;;;;13.90;7.50;;;;;;;-2.97;74.76;98751.05;79598;1299;3013396;-70
2024/01/03 05:05:20;;;;;;;9.80;6.60;;;;;;;-3.00;74.76;98746.64;79627;1297;3013088;-72
2024/01/03 05:07:48;;;;;;;12.70;8.10;;;;;;;-3.00;74.44;98752.30;78371;1297;3051628;-68
2024/01/03 05:10:14;;;;;;;14.90;8.20;;;;;;;-2.91;74.46;98758.66;79615;1294;3013522;-71
2024/01/03 05:12:41;;;;;;;13.80;7.40;;;;;;;-2.79;74.17;98760.49;79521;1297;3011722;-71
2024/01/03 05:15:09;;;;;;;10.70;6.70;;;;;;;-2.79;73.80;98767.71;78380;1294;3025337;-68
2024/01/03 05:17:36;;;;;;;14.00;8.30;;;;;;;-2.76;73.40;98774.18;79696;1298;3013097;-70
2024/01/03 05:20:04;;;;;;;14.30;8.50;;;;;;;-2.73;73.25;98774.98;79620;1294;3011569;-68
2024/01/03 05:22:32;;;;;;;15.10;7.30;;;;;;;-2.72;73.08;98777.52;78302;1297;3051878;-65
2024/01/03 05:25:00;;;;;;;14.30;8.30;;;;;;;-2.71;73.19;98773.73;79640;1294;3013020;-69
2024/01/03 05:27:26;;;;;;;13.30;8.10;;;;;;;-2.65;73.16;98781.67;79562;1294;3013025;-64
2024/01/03 05:29:54;;;;;;;18.40;8.60;;;;;;;-2.72;72.93;98787.46;78344;1299;3050405;-67
2024/01/03 05:32:21;;;;;;;18.10;8.40;;;;;;;-2.74;72.98;98792.98;79593;1298;3013127;-71
2024/01/03 05:34:47;;;;;;;16.20;8.80;;;;;;;-2.82;73.26;98789.35;79711;1293;3012813;-70
2024/01/03 05:37:15;;;;;;;11.30;6.30;;;;;;;-2.76;73.12;98793.20;78171;1295;3025916;-70
2024/01/03 05:39:42;;;;;;;14.10;7.50;;;;;;;-3.01;73.28;98796.02;79458;1294;3012973;-68
2024/01/03 05:42:08;;;;;;;16.80;9.10;;;;;;;-3.03;73.89;98791.08;79560;1294;3012975;-72
2024/01/03 05:44:37;;;;;;;17.80;9.90;;;;;;;-2.97;73.90;98797.15;78506;1296;3028027;-75
2024/01/03 05:47:05;;;;;;;15.60;8.80;;;;;;;-2.85;73.82;98791.13;79678;1299;3013104;-67
2024/01/03 05:49:31;;;;;;;15.40;9.10;;;;;;;-2.92;73.95;98791.41;79591;1300;3011860;-74
2024/01/03 05:51:59;;;;;;;18.40;9.40;;;;;;;-3.00;73.87;98793.94;78521;1294;3050317;-73
2024/01/03 05:54:26;;;;;;;16.90;9.20;;;;;;;-2.99;73.89;98795.80;79652;1294;3013516;-69
2024/01/03 05:56:53;;;;;;;15.30;9.40;;;;;;;-2.90;73.71;98794.63;79593;1294;3011829;-69
2024/01/03 05:59:20;;;;;;;15.00;9.00;;;;;;;-2.78;73.61;98795.28;78390;1294;3026472;-68
2024/01/03 06:01:47;;;;;;;13.90;7.80;;;;;;;-2.63;73.23;98797.23;79699;1299;3018188;-72
2024/01/03 06:04:14;;;;;;;17.30;9.10;;;;;;;-2.67;73.11;98795.10;79574;1300;3011508;-72
2024/01/03 06:06:42;;;;;;;16.40;8.80;;;;;;;-2.77;72.89;98793.56;78388;1293;3026568;-67
2024/01/03 06:09:08;;;;;;;19.60;9.10;;;;;;;-3.05;73.47;98798.81;79830;1294;3013188;-68
2024/01/03 06:11:35;;;;;;;13.80;7.60;;;;;;;-2.99;73.41;98803.01;79541;1294;3011957;-67
2024/01/03 06:14:03;;;;;;;10.80;6.50;;;;;;;-3.14;73.47;98799.47;78297;1294;3026913;-74
2024/01/03 06:16:30;;;;;;;16.00;7.70;;;;;;;-3.24;73.98;98793.97;79585;1298;3013589;-67
2024/01/03 06:18:56;;;;;;;15.60;8.30;;;;;;;-3.24;74.04;98788.66;79611;1299;3011802;-70
2024/01/03 06:21:24;;;;;;;14.00;7.30;;;;;;;-3.23;74.06;98796.02;78361;1293;3026826;-66
2024/01/03 06:23:51;;;;;;;14.30;8.00;;;;;;;-3.37;74.31;98796.23;79599;1294;3015857;-69
2024/01/03 06:26:17;;;;;;;19.50;9.40;;;;;;;-3.39;74.55;98797.95;79576;1294;3011719;-70
2024/01/03 06:28:45;;;;;;;18.10;9.30;;;;;;;-3.41;74.12;98804.52;78353;1297;3025900;-68
2024/01/03 06:31:12;;;;;;;13.40;8.00;;;;;;;-3.44;74.11;98813.12;79590;1297;3018478;-70
2024/01/03 06:33:38;;;;;;;18.20;8.20;;;;;;;-3.31;74.26;98812.74;79594;1299;3011700;-74
2024/01/03 06:36:06;;;;;;;12.20;8.20;;;;;;;-3.34;74.09;98816.05;78340;1299;3025882;-69
2024/01/03 06:38:33;;;;;;;14.50;7.60;;;;;;;-3.55;74.40;98815.65;79665;1297;3013601;-68
2024/01/03 06:41:00;;;;;;;15.90;8.90;;;;;;;-3.57;74.81;98811.40;79530;1294;3011715;-64
2024/01/03 06:43:28;;;;;;;17.50;8.60;;;;;;;-3.53;74.92;98811.20;78330;1294;3049433;-66
2024/01/03 06:45:55;;;;;;;12.80;7.40;;;;;;;-3.50;74.74;98814.56;79598;1298;3013183;-72
2024/01/03 06:48:22;;;;;;;17.40;8.40;;;;;;;-3.54;74.51;98799.39;79629;1298;3014015;-68
2024/01/03 06:50:49;;;;;;;16.50;8.00;;;;;;;-3.37;74.59;98802.90;78409;1295;3026435;-69
2024/01/03 06:53:16;;;;;;;16.20;8.90;;;;;;;-3.41;74.37;98806.22;79695;1294;3013942;-75
2024/01/03 06:55:43;;;;;;;14.40;7.90;;;;;;;-3.34;74.10;98799.77;79661;1296;3013083;-70
2024/01/03 06:58:10;;;;;;;16.10;8.80;;;;;;;-3.31;73.84;98795.63;78405;1299;3026311;-67
2024/01/03 07:00:37;;;;;;;16.30;9.10;;;;;;;-3.20;73.85;98793.05;79711;1299;3018778;-67
2024/01/03 07:03:04;;;;;;;15.40;8.70;;;;;;;-2.98;73.72;98794.76;79485;1294;3011815;-71
2024/01/03 07:05:32;;;;;;;15.60;9.60;;;;;;;-2.89;72.93;98796.50;78493;1298;3025277;-70
2024/01/03 07:08:00;;;;;;;15.60;8.40;;;;;;;-2.83;72.84;98797.27;79841;1294;3012649;-64
2024/01/03 07:10:31;;;;;;;15.10;8.80;;;;;;;-2.95;72.64;98790.77;79663;1294;3011642;-74
2024/01/03 07:12:59;;;;;;;15.20;8.50;;;;;;;-2.91;72.62;98789.67;79069;1298;3050083;-73
2024/01/03 07:15:26;;;;;;;16.60;8.60;;;;;;;-3.00;72.50;98789.14;80058;1298;3019055;-74
2024/01/03 07:17:55;;;;;;;17.40;10.00;;;;;;;-2.92;72.62;98787.63;79729;1304;3011507;-70
2024/01/03 07:20:23;;;;;;;21.90;10.90;;;;;;;-2.79;72.51;98792.04;78556;1294;3049941;-68
2024/01/03 07:22:50;;;;;;;21.80;11.20;;;;;;;-2.65;72.25;98797.63;79902;1293;3018376;-71
2024/01/03 07:25:17;;;;;;;22.60;11.70;;;;;;;-2.96;71.68;98799.53;79609;1294;3011638;-74
2024/01/03 07:27:45;;;;;;;23.00;11.50;;;;;;;-3.03;72.02;98794.85;78221;1298;3026435;-71
2024/01/03 07:30:13;;;;;;;18.50;10.10;;;;;;;-3.01;72.16;98791.90;80610;1295;3013382;-70
2024/01/03 07:32:40;;;;;;;22.00;10.30;;;;;;;-2.87;72.04;98795.95;80297;1295;3011380;-67
2024/01/03 07:35:08;;;;;;;18.80;10.30;;;;;;;-2.74;71.66;98804.83;79343;1298;3050780;-70
2024/01/03 07:37:35;;;;;;;18.90;10.50;;;;;;;-2.54;71.72;98811.16;80311;1297;3013330;-71
2024/01/03 07:40:01;;;;;;;17.90;10.10;;;;;;;-2.32;71.37;98807.84;80154;1294;3011761;-71
2024/01/03 07:42:30;;;;;;;20.00;11.20;;;;;;;-2.26;70.24;98813.05;78521;1298;3050904;-69
2024/01/03 07:44:56;;;;;;;23.80;11.60;;;;;;;-2.20;69.87;98810.52;80041;1298;3018570;-69
2024/01/03 07:47:23;;;;;;;21.90;11.50;;;;;;;-2.04;69.86;98802.50;79589;1293;3011886;-68
2024/01/03 07:49:51;;;;;;;26.60;12.80;;;;;;;-1.88;69.20;98803.73;78473;1300;3026925;-67
2024/01/03 07:52:17;;;;;;;33.10;15.30;;;;;;;-1.76;68.45;98802.79;79831;1298;3013104;-68
2024/01/03 07:54:44;;;;;;;31.10;15.80;;;;;;;-1.73;67.99;98806.14;79734;1295;3011607;-70
2024/01/03 07:57:12;;;;;;;26.70;14.10;;;;;;;-1.72;67.74;98812.82;78673;1298;3025806;-68
2024/01/03 07:59:42;;;;;;;23.40;13.10;;;;;;;-1.69;67.44;98809.67;79981;1297;3013029;-69
2024/01/03 08:02:12;;;;;;;22.60;12.30;;;;;;;-1.50;67.94;98806.34;79460;1298;3012888;-71
2024/01/03 08:04:39;;;;;;;27.10;13.80;;;;;;;-1.36;67.40;98807.41;79843;1295;3012964;-73
2024/01/03 08:07:06;;;;;;;24.70;13.40;;;;;;;-1.27;66.98;98805.48;79701;1292;3011954;-70
2024/01/03 08:09:37;;;;;;;27.80;14.80;;;;;;;-1.51;67.07;98801.55;78508;1292;3048797;-70
2024/01/03 08:12:06;;;;;;;33.30;15.80;;;;;;;-1.42;67.21;98798.78;79899;1295;3011650;-70
2024/01/03 08:14:34;;;;;;;36.40;17.40;;;;;;;-1.30;66.70;98796.79;78696;1299;3050746;-68
2024/01/03 08:17:01;;;;;;;45.40;18.90;;;;;;;-1.35;66.24;98799.98;79830;1298;3013236;-71
2024/01/03 08:19:28;;;;;;;38.20;18.30;;;;;;;-1.36;66.15;98800.88;79884;1295;3011663;-68
2024/01/03 08:21:56;;;;;;;36.00;17.50;;;;;;;-1.30;66.29;98806.58;78600;1292;3051161;-68
2024/01/03 08:24:23;;;;;;;40.30;18.90;;;;;;;-1.18;66.44;98804.59;79908;1294;3013318;-70
2024/01/03 08:26:50;;;;;;;35.20;18.30;;;;;;;-0.99;66.27;98809.30;79748;1297;3011436;-67
2024/01/03 08:29:18;;;;;;;39.10;18.10;;;;;;;-1.08;65.70;98811.59;78513;1298;3050437;-77
2024/01/03 08:31:46;;;;;;;43.70;18.40;;;;;;;-1.10;66.11;98812.15;79862;1298;3013544;-69
2024/01/03 08:34:13;;;;;;;42.10;18.40;;;;;;;-1.07;65.72;98814.48;79821;1307;3011611;-70
2024/01/03 08:36:42;;;;;;;39.90;17.40;;;;;;;-1.12;65.60;98816.32;78584;1296;3051538;-75
2024/01/03 08:39:09;;;;;;;42.00;17.30;;;;;;;-1.07;65.52;98818.27;79736;1295;3013667;-69
2024/01/03 08:41:35;;;;;;;40.60;16.80;;;;;;;-0.95;65.52;98819.00;79920;1294;3012862;-69
2024/01/03 08:44:05;;;;;;;38.10;17.80;;;;;;;-0.90;65.52;98822.67;78731;1298;3049825;-67
2024/01/03 08:46:34;;;;;;;29.30;14.80;;;;;;;-1.12;65.56;98824.56;79838;1297;3011662;-71
2024/01/03 08:49:03;;;;;;;25.70;14.20;;;;;;;-1.01;65.86;98822.05;78440;1297;3025920;-73
2024/01/03 08:51:30;;;;;;;23.00;12.20;;;;;;;-1.03;65.66;98819.52;79863;1296;3013236;-72
2024/01/03 08:53:57;;;;;;;23.40;12.80;;;;;;;-1.12;65.80;98815.80;79802;1293;3011828;-75
2024/01/03 08:56:25;;;;;;;20.80;12.20;;;;;;;-1.02;65.59;98810.77;78815;1298;3049715;-74
2024/01/03 08:58:51;;;;;;;26.20;12.70;;;;;;;-0.88;65.11;98812.11;79891;1301;3012715;-71
2024/01/03 09:01:20;;;;;;;26.70;13.10;;;;;;;-0.91;65.00;98819.07;80029;1295;3011686;-71
2024/01/03 09:03:48;;;;;;;22.30;12.30;;;;;;;-1.18;65.52;98824.70;78500;1299;3050553;-74
2024/01/03 09:06:21;;;;;;;23.60;12.70;;;;;;;-1.11;65.95;98821.95;79735;1297;3014271;-73
2024/01/03 09:08:50;;;;;;;22.40;11.90;;;;;;;-1.09;65.95;98807.64;78507;1294;3056851;-74
2024/01/03 09:11:18;;;;;;;26.50;12.60;;;;;;;-0.81;65.34;98799.05;79737;1298;3013502;-72
2024/01/03 09:13:49;;;;;;;25.60;12.60;;;;;;;-0.75;64.68;98802.35;79459;1294;3011642;-70
2024/01/03 09:16:20;;;;;;;38.20;16.30;;;;;;;-0.83;65.02;98805.11;79908;1296;3013417;-76
2024/01/03 09:18:47;;;;;;;31.20;14.10;;;;;;;-0.73;64.66;98801.96;78468;1297;3052590;-74
2024/01/03 09:21:15;;;;;;;23.30;13.60;;;;;;;-0.56;64.53;98791.20;79755;1296;3013055;-72
2024/01/03 09:23:42;;;;;;;29.00;13.50;;;;;;;-0.41;64.06;98778.59;79833;1295;3011614;-67
2024/01/03 09:26:10;;;;;;;25.00;13.10;;;;;;;-0.21;63.74;98773.73;78508;1297;3056093;-71
2024/01/03 09:28:38;;;;;;;30.30;13.10;;;;;;;-0.22;62.77;98771.36;79798;1298;3013725;-72
2024/01/03 09:31:05;;;;;;;33.50;13.70;;;;;;;-0.23;62.91;98772.08;79997;1298;3011624;-75
2024/01/03 09:33:33;;;;;;;27.50;13.70;;;;;;;-0.22;63.36;98769.31;78789;1298;3052027;-68
2024/01/03 09:36:00;;;;;;;32.00;13.90;;;;;;;-0.06;62.77;98769.54;79737;1297;3013239;-74
2024/01/03 09:38:27;;;;;;;25.10;13.70;;;;;;;-0.08;62.58;98761.16;79802;1292;3012889;-72
2024/01/03 09:40:56;;;;;;;29.50;14.20;;;;;;;-0.03;62.86;98762.91;78586;1296;3057174;-74
2024/01/03 09:43:22;;;;;;;24.60;13.80;;;;;;;0.07;62.62;98764.52;79667;1298;3013601;-67
2024/01/03 09:45:49;;;;;;;33.80;15.20;;;;;;;0.10;61.72;98755.80;80039;1298;3011497;-71
2024/01/03 09:48:17;;;;;;;30.30;15.10;;;;;;;-0.11;62.38;98756.25;78603;1297;3052268;-69
2024/01/03 09:50:43;;;;;;;27.20;14.50;;;;;;;-0.12;62.62;98749.90;79844;1292;3013690;-71
2024/01/03 09:53:10;;;;;;;27.70;14.00;;;;;;;0.18;62.27;98744.73;79821;1294;3011969;-70
2024/01/03 09:55:38;;;;;;;26.60;13.30;;;;;;;0.34;61.25;98737.72;78203;1296;3026181;-70
2024/01/03 09:58:05;;;;;;;30.10;14.70;;;;;;;0.26;61.43;98727.61;79902;1293;3013305;-69
2024/01/03 10:00:33;;;;;;;26.50;14.30;;;;;;;0.34;61.42;98719.61;79801;1298;3011561;-67
2024/01/03 10:03:01;;;;;;;26.50;14.40;;;;;;;0.48;61.25;98716.45;78655;1295;3051983;-68
2024/01/03 10:05:29;;;;;;;29.00;13.50;;;;;;;0.55;61.21;98716.03;79791;1292;3015840;-69
2024/01/03 10:07:56;;;;;;;28.60;15.00;;;;;;;0.63;61.09;98716.30;79893;1292;3012897;-72
2024/01/03 10:10:32;;;;;;;26.50;14.30;;;;;;;0.54;61.39;98713.48;78784;1294;3056778;-73
2024/01/03 10:13:14;;;;;;;26.40;15.50;;;;;;;0.43;61.37;98716.05;78499;1292;3048542;-73
2024/01/03 10:15:44;;;;;;;30.90;14.80;;;;;;;0.28;62.41;98709.47;78639;1293;3052169;-71
2024/01/03 10:18:14;;;;;;;33.70;16.00;;;;;;;0.21;62.84;98697.10;79859;1297;3014220;-69
2024/01/03 10:20:42;;;;;;;25.80;14.50;;;;;;;0.39;62.77;98693.64;78726;1297;3026310;-70
2024/01/03 10:23:16;;;;;;;35.80;14.90;;;;;;;0.63;62.08;98681.98;79910;1292;3019196;-71
2024/01/03 10:25:44;;;;;;;28.50;13.70;;;;;;;0.61;62.13;98680.50;78559;1292;3051384;-66
2024/01/03 10:28:17;;;;;;;23.60;13.40;;;;;;;0.72;61.80;98673.63;79830;1294;3018181;-69
2024/01/03 10:30:52;;;;;;;28.50;14.00;;;;;;;0.57;62.16;98672.72;78846;1292;3053728;-70
2024/01/03 10:33:21;;;;;;;35.00;15.80;;;;;;;0.52;62.43;98673.41;79376;1298;3011956;-73
2024/01/03 10:35:47;;;;;;;31.60;15.20;;;;;;;0.79;61.80;98668.55;79728;1294;3013394;-66
2024/01/03 10:38:15;;;;;;;23.50;13.10;;;;;;;0.99;61.36;98664.42;80092;1298;3011826;-64
2024/01/03 10:40:44;;;;;;;21.20;12.20;;;;;;;1.04;61.13;98668.75;79485;1294;3069286;-65
2024/01/03 10:43:11;;;;;;;20.70;11.80;;;;;;;1.16;60.44;98661.77;80687;1297;3015298;-65
2024/01/03 10:45:37;;;;;;;22.10;12.80;;;;;;;1.20;60.34;98656.27;80802;1292;3013470;-69
2024/01/03 10:48:06;;;;;;;21.50;12.30;;;;;;;1.29;60.56;98657.17;79557;1296;3051857;-68
2024/01/03 10:50:34;;;;;;;19.60;11.40;;;;;;;1.33;60.42;98659.46;80921;1298;3011724;-65
2024/01/03 10:53:08;;;;;;;19.80;11.30;;;;;;;1.23;60.79;98654.80;80325;1297;3012910;-65
2024/01/03 10:55:37;;;;;;;22.90;11.40;;;;;;;1.30;60.68;98654.02;80736;1293;3011906;-67
2024/01/03 10:58:12;;;;;;;18.60;11.20;;;;;;;1.31;61.00;98651.59;79361;1298;3069049;-67
2024/01/03 11:01:06;;;;;;;22.70;11.00;;;;;;;1.39;61.11;98651.85;79288;1298;3013118;-70
2024/01/03 11:04:23;;;;;;;21.30;11.50;;;;;;;1.34;61.14;98653.02;78360;1301;3287839;-72
2024/01/03 11:07:25;;;;;;;19.90;10.60;;;;;;;1.28;61.37;98654.95;78457;1292;3056584;-67
2024/01/03 11:09:52;;;;;;;17.30;10.20;;;;;;;1.33;61.18;98647.17;78537;1293;3049910;-72
2024/01/03 11:12:22;;;;;;;18.00;10.60;;;;;;;1.45;60.95;98640.73;79875;1298;3013305;-69
2024/01/03 11:14:51;;;;;;;16.90;9.80;;;;;;;1.48;60.93;98634.73;79009;1294;3011871;-67